createdAt,value
2023-04-08T00:02:23.687Z,5.87
2023-04-08T00:04:57.824Z,5.87
2023-04-08T00:07:31.899Z,5.86
2023-04-08T00:10:06.107Z,5.85
2023-04-08T00:12:39.976Z,5.85
2023-04-08T00:15:14.845Z,5.85
2023-04-08T00:17:48.026Z,5.82
2023-04-08T00:20:20.922Z,5.83
2023-04-08T00:22:54.293Z,5.82
2023-04-08T00:25:27.752Z,5.82
2023-04-08T00:28:01.307Z,5.81
2023-04-08T00:30:34.820Z,5.81
2023-04-08T00:33:09.340Z,5.79
2023-04-08T00:35:42.997Z,5.80
2023-04-08T00:38:16.500Z,5.81
2023-04-08T00:40:50.526Z,5.81
2023-04-08T00:43:24.524Z,5.78
2023-04-08T00:45:58.199Z,5.78
2023-04-08T00:48:31.582Z,5.75
2023-04-08T00:51:05.529Z,5.73
2023-04-08T00:53:39.120Z,5.72
2023-04-08T00:56:12.572Z,5.69
2023-04-08T00:58:46.123Z,5.68
2023-04-08T01:01:27.517Z,5.67
2023-04-08T01:04:09.399Z,5.67
2023-04-08T01:06:45.560Z,5.66
2023-04-08T01:09:22.752Z,5.64
2023-04-08T01:11:58.200Z,5.62
2023-04-08T01:14:34.080Z,5.63
2023-04-08T01:17:08.806Z,5.63
2023-04-08T01:19:45.050Z,5.63
2023-04-08T01:22:29.952Z,5.65
2023-04-08T01:25:08.110Z,5.65
2023-04-08T01:27:43.027Z,5.65
2023-04-08T01:30:18.974Z,5.65
2023-04-08T01:32:55.133Z,5.65
2023-04-08T01:35:29.445Z,5.64
2023-04-08T01:38:06.900Z,5.65
2023-04-08T01:40:42.629Z,5.64
2023-04-08T01:43:18.766Z,5.64
2023-04-08T01:45:58.717Z,5.63
2023-04-08T01:48:34.000Z,5.63
2023-04-08T01:51:09.042Z,5.62
2023-04-08T01:53:44.418Z,5.63
2023-04-08T01:56:18.704Z,5.62
2023-04-08T01:58:56.544Z,5.62
2023-04-08T02:01:33.589Z,5.61
2023-04-08T02:04:08.124Z,5.62
2023-04-08T02:06:42.140Z,5.60
2023-04-08T02:09:15.637Z,5.63
2023-04-08T02:11:49.235Z,5.62
2023-04-08T02:14:23.451Z,5.62
2023-04-08T02:17:03.763Z,5.62
2023-04-08T02:19:48.461Z,5.61
2023-04-08T02:22:31.312Z,5.61
2023-04-08T02:25:09.612Z,5.62
2023-04-08T02:27:43.957Z,5.58
2023-04-08T02:30:19.569Z,5.61
2023-04-08T02:32:55.620Z,5.60
2023-04-08T02:35:30.457Z,5.59
2023-04-08T02:38:04.339Z,5.59
2023-04-08T02:40:37.830Z,5.60
2023-04-08T02:43:11.338Z,5.58
2023-04-08T02:45:46.314Z,5.58
2023-04-08T02:48:20.051Z,5.58
2023-04-08T02:50:55.967Z,5.58
2023-04-08T02:53:29.231Z,5.57
2023-04-08T02:56:02.720Z,5.57
2023-04-08T02:58:36.270Z,5.57
2023-04-08T03:01:10.337Z,5.57
2023-04-08T03:03:44.421Z,5.55
2023-04-08T03:06:17.910Z,5.55
2023-04-08T03:08:51.575Z,5.54
2023-04-08T03:11:26.331Z,5.54
2023-04-08T03:13:59.934Z,5.55
2023-04-08T03:16:33.540Z,5.54
2023-04-08T03:19:07.782Z,5.53
2023-04-08T03:21:41.266Z,5.53
2023-04-08T03:24:15.070Z,5.52
2023-04-08T03:26:48.286Z,5.51
2023-04-08T03:29:22.065Z,5.51
2023-04-08T03:31:56.161Z,5.50
2023-04-08T03:34:29.964Z,5.50
2023-04-08T03:37:03.310Z,5.48
2023-04-08T03:39:36.880Z,5.48
2023-04-08T03:42:10.467Z,5.47
2023-04-08T03:44:43.876Z,5.48
2023-04-08T03:47:17.460Z,5.47
2023-04-08T03:49:50.795Z,5.47
2023-04-08T03:52:24.520Z,5.47
2023-04-08T03:54:58.056Z,5.46
2023-04-08T03:57:31.523Z,5.45
2023-04-08T04:00:05.336Z,5.46
2023-04-08T04:02:45.696Z,5.47
2023-04-08T04:05:20.668Z,5.46
2023-04-08T04:07:54.037Z,5.45
2023-04-08T04:10:27.468Z,5.45
2023-04-08T04:13:02.261Z,5.46
2023-04-08T04:15:35.880Z,5.46
2023-04-08T04:18:10.209Z,5.47
2023-04-08T04:20:44.601Z,5.45
2023-04-08T04:23:18.506Z,5.46
2023-04-08T04:25:52.113Z,5.48
2023-04-08T04:28:25.386Z,5.51
2023-04-08T04:30:59.213Z,5.51
2023-04-08T04:33:32.938Z,5.51
2023-04-08T04:36:06.653Z,5.51
2023-04-08T04:38:40.504Z,5.51
2023-04-08T04:41:14.166Z,5.52
2023-04-08T04:43:47.556Z,5.52
2023-04-08T04:46:21.093Z,5.52
2023-04-08T04:48:54.272Z,5.53
2023-04-08T04:51:28.506Z,5.55
2023-04-08T04:54:01.813Z,5.56
2023-04-08T04:56:35.091Z,5.60
2023-04-08T04:59:09.104Z,5.60
2023-04-08T05:01:42.801Z,5.62
2023-04-08T05:04:16.729Z,5.65
2023-04-08T05:06:50.108Z,5.67
2023-04-08T05:09:23.814Z,5.71
2023-04-08T05:11:57.715Z,5.73
2023-04-08T05:14:32.255Z,5.72
2023-04-08T05:17:06.783Z,5.75
2023-04-08T05:19:40.268Z,5.79
2023-04-08T05:22:13.672Z,5.82
2023-04-08T05:24:47.216Z,5.86
2023-04-08T05:27:21.824Z,5.90
2023-04-08T05:29:55.163Z,5.93
2023-04-08T05:32:29.797Z,5.94
2023-04-08T05:35:05.805Z,5.97
2023-04-08T05:37:39.527Z,5.98
2023-04-08T05:40:15.476Z,6.01
2023-04-08T05:42:49.102Z,6.06
2023-04-08T05:45:22.479Z,6.10
2023-04-08T05:47:55.935Z,6.12
2023-04-08T05:50:29.016Z,6.14
2023-04-08T05:53:02.475Z,6.21
2023-04-08T05:55:36.501Z,6.24
2023-04-08T05:58:10.034Z,6.27
2023-04-08T06:00:43.484Z,6.31
2023-04-08T06:03:19.014Z,6.34
2023-04-08T06:05:54.351Z,6.37
2023-04-08T06:08:28.163Z,6.42
2023-04-08T06:11:01.346Z,6.47
2023-04-08T06:13:35.205Z,6.50
2023-04-08T06:16:19.542Z,6.55
2023-04-08T06:18:54.721Z,6.59
2023-04-08T06:21:28.439Z,6.65
2023-04-08T06:24:02.249Z,6.68
2023-04-08T06:26:35.638Z,6.72
2023-04-08T06:29:08.834Z,6.74
2023-04-08T06:31:43.335Z,6.80
2023-04-08T06:34:16.911Z,6.84
2023-04-08T06:36:50.677Z,6.91
2023-04-08T06:39:25.380Z,6.96
2023-04-08T06:41:59.471Z,7.03
2023-04-08T06:44:40.664Z,7.11
2023-04-08T06:47:13.858Z,7.15
2023-04-08T06:49:47.674Z,7.21
2023-04-08T06:52:20.932Z,7.29
2023-04-08T06:54:54.309Z,7.38
2023-04-08T06:57:27.950Z,7.48
2023-04-08T07:00:01.952Z,7.58
2023-04-08T07:02:35.456Z,7.69
2023-04-08T07:05:09.945Z,7.81
2023-04-08T07:07:43.470Z,7.91
2023-04-08T07:10:17.257Z,8.01
2023-04-08T07:12:51.251Z,8.10
2023-04-08T07:15:24.819Z,8.11
2023-04-08T07:17:59.040Z,8.17
2023-04-08T07:20:32.447Z,8.26
2023-04-08T07:23:06.092Z,8.31
2023-04-08T07:25:39.692Z,8.40
2023-04-08T07:28:13.151Z,8.47
2023-04-08T07:30:47.137Z,8.58
2023-04-08T07:33:21.513Z,8.66
2023-04-08T07:35:55.575Z,8.72
2023-04-08T07:38:28.965Z,8.83
2023-04-08T07:41:02.133Z,8.95
2023-04-08T07:43:37.579Z,9.05
2023-04-08T07:46:11.454Z,9.14
2023-04-08T07:48:44.837Z,9.25
2023-04-08T07:51:20.252Z,9.36
2023-04-08T07:53:54.816Z,9.43
2023-04-08T07:56:28.410Z,9.58
2023-04-08T07:59:02.504Z,9.67
2023-04-08T08:01:36.468Z,9.78
2023-04-08T08:04:10.040Z,9.96
2023-04-08T08:06:43.455Z,10.16
2023-04-08T08:09:17.244Z,10.32
2023-04-08T08:11:51.087Z,10.48
2023-04-08T08:14:26.925Z,10.62
2023-04-08T08:17:00.145Z,10.73
2023-04-08T08:19:33.678Z,10.89
2023-04-08T08:22:07.500Z,11.01
2023-04-08T08:24:40.882Z,11.15
2023-04-08T08:27:15.370Z,11.27
2023-04-08T08:29:48.691Z,11.38
2023-04-08T08:32:22.840Z,11.48
2023-04-08T08:34:56.100Z,11.61
2023-04-08T08:37:29.512Z,11.73
2023-04-08T08:40:04.020Z,11.84
2023-04-08T08:42:37.912Z,11.93
2023-04-08T08:45:13.327Z,12.02
2023-04-08T08:47:48.025Z,12.13
2023-04-08T08:50:23.432Z,12.17
2023-04-08T08:52:56.812Z,12.21
2023-04-08T08:55:53.231Z,12.26
2023-04-08T08:58:27.943Z,12.35
2023-04-08T09:01:01.647Z,12.43
2023-04-08T09:03:35.355Z,12.45
2023-04-08T09:06:10.596Z,12.47
2023-04-08T09:08:45.079Z,12.38
2023-04-08T09:11:20.277Z,12.37
2023-04-08T09:13:53.713Z,12.37
2023-04-08T09:16:27.833Z,12.42
2023-04-08T09:19:11.840Z,12.49
2023-04-08T09:21:46.176Z,12.55
2023-04-08T09:24:33.230Z,12.60
2023-04-08T09:27:07.473Z,12.57
2023-04-08T09:29:41.244Z,12.60
2023-04-08T09:32:14.762Z,12.62
2023-04-08T09:34:48.475Z,12.62
2023-04-08T09:37:21.775Z,12.60
2023-04-08T09:39:55.280Z,12.59
2023-04-08T09:42:28.874Z,12.55
2023-04-08T09:45:06.686Z,12.45
2023-04-08T09:47:53.709Z,12.40
2023-04-08T09:50:33.110Z,12.42
2023-04-08T09:53:19.907Z,12.45
2023-04-08T09:55:57.200Z,12.48
2023-04-08T09:58:35.474Z,12.46
2023-04-08T10:01:14.382Z,12.46
2023-04-08T10:03:54.662Z,12.47
2023-04-08T10:06:32.947Z,12.51
2023-04-08T10:09:08.079Z,12.58
2023-04-08T10:11:41.546Z,12.64
2023-04-08T10:14:15.632Z,12.64
2023-04-08T10:16:49.408Z,12.66
2023-04-08T10:19:42.406Z,12.69
2023-04-08T10:22:52.881Z,12.73
2023-04-08T10:25:36.905Z,12.78
2023-04-08T10:28:30.196Z,12.82
2023-04-08T10:31:03.999Z,12.89
2023-04-08T10:33:40.756Z,12.96
2023-04-08T10:36:15.588Z,13.04
2023-04-08T10:38:49.377Z,13.13
2023-04-08T10:41:27.409Z,13.25
2023-04-08T10:44:00.782Z,13.36
2023-04-08T10:46:41.197Z,13.46
2023-04-08T10:49:14.403Z,13.58
2023-04-08T10:51:48.554Z,13.69
2023-04-08T10:54:23.398Z,13.76
2023-04-08T10:56:56.976Z,13.85
2023-04-08T10:59:34.364Z,13.96
2023-04-08T11:02:08.399Z,14.03
2023-04-08T11:04:44.868Z,14.16
2023-04-08T11:07:18.540Z,14.31
2023-04-08T11:09:52.349Z,14.45
2023-04-08T11:12:28.204Z,14.59
2023-04-08T11:15:02.027Z,14.69
2023-04-08T11:17:38.124Z,14.75
2023-04-08T11:20:13.957Z,14.79
2023-04-08T11:22:48.748Z,14.88
2023-04-08T11:25:23.210Z,14.92
2023-04-08T11:27:56.773Z,14.99
2023-04-08T11:30:31.272Z,15.06
2023-04-08T11:33:05.043Z,15.06
2023-04-08T11:35:41.505Z,15.05
2023-04-08T11:38:15.683Z,15.06
2023-04-08T11:40:59.047Z,15.05
2023-04-08T11:43:32.691Z,15.03
2023-04-08T11:46:13.086Z,15.06
2023-04-08T11:49:01.396Z,15.05
2023-04-08T11:51:35.921Z,15.06
2023-04-08T11:54:27.172Z,15.07
2023-04-08T11:57:01.305Z,15.05
2023-04-08T11:59:34.851Z,14.99
2023-04-08T12:02:08.889Z,15.03
2023-04-08T12:04:42.468Z,15.01
2023-04-08T12:07:15.900Z,15.01
2023-04-08T12:09:49.448Z,15.06
2023-04-08T12:12:22.839Z,15.08
2023-04-08T12:14:56.248Z,15.08
2023-04-08T12:17:29.715Z,15.10
2023-04-08T12:20:04.459Z,15.12
2023-04-08T12:22:37.652Z,15.12
2023-04-08T12:25:13.232Z,15.06
2023-04-08T12:27:47.290Z,14.98
2023-04-08T12:30:21.433Z,14.96
2023-04-08T12:32:55.604Z,14.95
2023-04-08T12:35:28.972Z,14.95
2023-04-08T12:38:03.347Z,14.85
2023-04-08T12:40:36.812Z,14.73
2023-04-08T12:43:10.023Z,14.69
2023-04-08T12:45:44.578Z,14.65
2023-04-08T12:48:19.843Z,14.63
2023-04-08T12:50:53.339Z,14.64
2023-04-08T12:53:26.995Z,14.61
2023-04-08T12:56:00.639Z,14.70
2023-04-08T12:58:35.736Z,14.76
2023-04-08T13:01:09.217Z,14.66
2023-04-08T13:03:46.375Z,14.72
2023-04-08T13:06:20.523Z,14.78
2023-04-08T13:08:54.138Z,14.89
2023-04-08T13:11:28.626Z,14.98
2023-04-08T13:14:02.390Z,15.05
2023-04-08T13:16:35.640Z,15.06
2023-04-08T13:19:08.821Z,15.02
2023-04-08T13:21:42.759Z,15.01
2023-04-08T13:24:18.384Z,15.03
2023-04-08T13:26:52.600Z,14.99
2023-04-08T13:29:25.993Z,14.89
2023-04-08T13:32:00.477Z,14.73
2023-04-08T13:34:36.531Z,14.59
2023-04-08T13:37:10.279Z,14.44
2023-04-08T13:39:43.724Z,14.43
2023-04-08T13:42:17.487Z,14.46
2023-04-08T13:44:51.275Z,14.50
2023-04-08T13:47:25.493Z,14.49
2023-04-08T13:49:58.901Z,14.52
2023-04-08T13:52:32.468Z,14.54
2023-04-08T13:55:06.440Z,14.57
2023-04-08T13:57:40.104Z,14.59
2023-04-08T14:00:16.768Z,14.58
2023-04-08T14:02:51.133Z,14.56
2023-04-08T14:05:24.583Z,14.56
2023-04-08T14:07:57.866Z,14.56
2023-04-08T14:10:31.414Z,14.51
2023-04-08T14:13:05.214Z,14.50
2023-04-08T14:15:38.559Z,14.46
2023-04-08T14:18:13.120Z,14.41
2023-04-08T14:20:46.994Z,14.35
2023-04-08T14:23:21.434Z,14.32
2023-04-08T14:25:54.805Z,14.31
2023-04-08T14:28:28.825Z,14.33
2023-04-08T14:31:04.293Z,14.32
2023-04-08T14:33:39.329Z,14.31
2023-04-08T14:36:14.242Z,14.26
2023-04-08T14:38:47.919Z,14.19
2023-04-08T14:41:21.506Z,14.14
2023-04-08T14:43:55.222Z,14.08
2023-04-08T14:46:29.569Z,14.03
2023-04-08T14:49:03.019Z,13.98
2023-04-08T14:51:38.118Z,13.98
2023-04-08T14:54:14.517Z,13.97
2023-04-08T14:56:48.439Z,13.95
2023-04-08T14:59:22.041Z,13.86
2023-04-08T15:01:55.266Z,13.80
2023-04-08T15:04:28.874Z,13.72
2023-04-08T15:07:04.076Z,13.64
2023-04-08T15:09:37.673Z,13.61
2023-04-08T15:12:13.154Z,13.60
2023-04-08T15:14:47.146Z,13.59
2023-04-08T15:17:20.942Z,13.55
2023-04-08T15:19:54.771Z,13.55
2023-04-08T15:22:28.467Z,13.55
2023-04-08T15:25:01.927Z,13.53
2023-04-08T15:27:36.341Z,13.51
2023-04-08T15:30:12.498Z,13.49
2023-04-08T15:32:45.923Z,13.43
2023-04-08T15:35:20.257Z,13.34
2023-04-08T15:37:53.830Z,13.30
2023-04-08T15:40:27.416Z,13.25
2023-04-08T15:43:01.533Z,13.21
2023-04-08T15:45:35.119Z,13.18
2023-04-08T15:48:11.699Z,13.17
2023-04-08T15:50:45.097Z,13.14
2023-04-08T15:53:18.836Z,13.11
2023-04-08T15:55:52.290Z,13.08
2023-04-08T15:58:27.387Z,13.01
2023-04-08T16:01:00.808Z,12.96
2023-04-08T16:03:34.452Z,12.96
2023-04-08T16:06:09.076Z,12.93
2023-04-08T16:08:44.993Z,12.89
2023-04-08T16:11:18.516Z,12.85
2023-04-08T16:13:51.990Z,12.80
2023-04-08T16:16:25.546Z,12.76
2023-04-08T16:19:00.444Z,12.66
2023-04-08T16:21:34.223Z,12.59
2023-04-08T16:24:08.501Z,12.54
2023-04-08T16:26:42.449Z,12.49
2023-04-08T16:29:16.339Z,12.44
2023-04-08T16:31:50.387Z,12.38
2023-04-08T16:34:26.316Z,12.31
2023-04-08T16:36:59.830Z,12.23
2023-04-08T16:39:33.517Z,12.18
2023-04-08T16:42:07.548Z,12.11
2023-04-08T16:44:40.980Z,12.05
2023-04-08T16:47:14.393Z,11.97
2023-04-08T16:49:48.030Z,11.91
2023-04-08T16:52:22.141Z,11.83
2023-04-08T16:54:55.730Z,11.77
2023-04-08T16:57:29.560Z,11.68
2023-04-08T17:00:03.352Z,11.62
2023-04-08T17:02:37.235Z,11.54
2023-04-08T17:05:12.986Z,11.47
2023-04-08T17:07:46.893Z,11.37
2023-04-08T17:10:20.283Z,11.27
2023-04-08T17:12:53.943Z,11.20
2023-04-08T17:15:27.588Z,11.14
2023-04-08T17:18:01.027Z,11.06
2023-04-08T17:20:34.872Z,10.98
2023-04-08T17:23:08.809Z,10.90
2023-04-08T17:25:42.027Z,10.81
2023-04-08T17:28:15.655Z,10.73
2023-04-08T17:30:49.418Z,10.64
2023-04-08T17:33:23.040Z,10.56
2023-04-08T17:35:56.882Z,10.48
2023-04-08T17:38:30.630Z,10.40
2023-04-08T17:41:04.075Z,10.30
2023-04-08T17:43:37.484Z,10.20
2023-04-08T17:46:11.212Z,10.15
2023-04-08T17:48:44.600Z,10.06
2023-04-08T17:51:18.578Z,9.96
2023-04-08T17:53:52.073Z,9.88
2023-04-08T17:56:27.951Z,9.79
2023-04-08T17:59:01.875Z,9.72
2023-04-08T18:01:37.487Z,9.63
2023-04-08T18:04:12.874Z,9.54
2023-04-08T18:06:46.629Z,9.46
2023-04-08T18:09:20.366Z,9.37
2023-04-08T18:11:53.730Z,9.31
2023-04-08T18:14:27.477Z,9.23
2023-04-08T18:17:01.159Z,9.17
2023-04-08T18:19:34.869Z,9.12
2023-04-08T18:22:08.593Z,9.07
2023-04-08T18:24:41.962Z,9.00
2023-04-08T18:27:15.554Z,8.94
2023-04-08T18:29:49.359Z,8.89
2023-04-08T18:32:22.863Z,8.84
2023-04-08T18:34:56.679Z,8.78
2023-04-08T18:37:30.562Z,8.73
2023-04-08T18:40:04.274Z,8.66
2023-04-08T18:42:37.510Z,8.60
2023-04-08T18:45:12.214Z,8.55
2023-04-08T18:47:45.918Z,8.50
2023-04-08T18:50:19.950Z,8.44
2023-04-08T18:52:53.468Z,8.42
2023-04-08T18:55:27.030Z,8.37
2023-04-08T18:58:00.278Z,8.34
2023-04-08T19:00:33.994Z,8.31
2023-04-08T19:03:10.094Z,8.29
2023-04-08T19:05:44.592Z,8.27
2023-04-08T19:08:18.317Z,8.24
2023-04-08T19:10:51.876Z,8.22
2023-04-08T19:13:25.365Z,8.22
2023-04-08T19:15:59.228Z,8.19
2023-04-08T19:18:32.865Z,8.19
2023-04-08T19:21:06.053Z,8.16
2023-04-08T19:23:41.698Z,8.14
2023-04-08T19:26:15.396Z,8.12
2023-04-08T19:28:49.132Z,8.10
2023-04-08T19:31:23.174Z,8.08
2023-04-08T19:33:56.416Z,8.07
2023-04-08T19:36:29.902Z,8.06
2023-04-08T19:39:03.774Z,8.04
2023-04-08T19:41:37.393Z,8.01
2023-04-08T19:44:10.979Z,7.99
2023-04-08T19:46:44.598Z,7.98
2023-04-08T19:49:18.108Z,7.95
2023-04-08T19:51:51.906Z,7.91
2023-04-08T19:54:25.505Z,7.91
2023-04-08T19:56:59.799Z,7.89
2023-04-08T19:59:33.275Z,7.85
2023-04-08T20:02:07.095Z,7.82
2023-04-08T20:04:40.991Z,7.78
2023-04-08T20:07:14.735Z,7.76
2023-04-08T20:09:48.425Z,7.73
2023-04-08T20:12:21.940Z,7.68
2023-04-08T20:14:55.833Z,7.67
2023-04-08T20:17:29.685Z,7.64
2023-04-08T20:20:03.188Z,7.63
2023-04-08T20:22:37.226Z,7.62
2023-04-08T20:25:12.088Z,7.61
2023-04-08T20:27:45.998Z,7.60
2023-04-08T20:30:20.235Z,7.60
2023-04-08T20:32:53.544Z,7.58
2023-04-08T20:35:27.292Z,7.58
2023-04-08T20:38:00.733Z,7.57
2023-04-08T20:40:34.397Z,7.57
2023-04-08T20:43:08.016Z,7.56
2023-04-08T20:45:41.673Z,7.56
2023-04-08T20:48:15.405Z,7.55
2023-04-08T20:50:51.564Z,7.55
2023-04-08T20:53:26.549Z,7.53
2023-04-08T20:56:00.030Z,7.52
2023-04-08T20:58:33.568Z,7.48
2023-04-08T21:01:07.305Z,7.47
2023-04-08T21:03:40.639Z,7.44
2023-04-08T21:06:19.421Z,7.43
2023-04-08T21:08:53.751Z,7.41
2023-04-08T21:11:28.744Z,7.37
2023-04-08T21:14:02.253Z,7.33
2023-04-08T21:16:35.891Z,7.31
2023-04-08T21:19:09.504Z,7.30
2023-04-08T21:21:42.735Z,7.27
2023-04-08T21:24:16.444Z,7.25
2023-04-08T21:26:50.321Z,7.22
2023-04-08T21:29:24.062Z,7.19
2023-04-08T21:31:57.615Z,7.16
2023-04-08T21:34:31.266Z,7.12
2023-04-08T21:37:04.956Z,7.08
2023-04-08T21:39:38.856Z,7.07
2023-04-08T21:42:12.462Z,7.02
2023-04-08T21:44:46.056Z,6.99
2023-04-08T21:47:19.311Z,6.96
2023-04-08T21:49:53.038Z,6.93
2023-04-08T21:52:27.911Z,6.90
2023-04-08T21:55:01.305Z,6.86
2023-04-08T21:57:34.466Z,6.84
2023-04-08T22:00:13.621Z,6.82
2023-04-08T22:02:49.934Z,6.80
2023-04-08T22:05:23.930Z,6.76
2023-04-08T22:07:57.875Z,6.72
2023-04-08T22:10:31.733Z,6.70
2023-04-08T22:13:05.048Z,6.68
2023-04-08T22:15:38.535Z,6.67
2023-04-08T22:18:12.068Z,6.64
2023-04-08T22:20:45.882Z,6.64
2023-04-08T22:23:19.545Z,6.60
2023-04-08T22:25:54.120Z,6.59
2023-04-08T22:28:27.899Z,6.57
2023-04-08T22:31:02.101Z,6.56
2023-04-08T22:33:35.628Z,6.53
2023-04-08T22:36:10.198Z,6.52
2023-04-08T22:38:43.762Z,6.51
2023-04-08T22:41:23.088Z,6.49
2023-04-08T22:43:56.751Z,6.48
2023-04-08T22:46:30.546Z,6.45
2023-04-08T22:49:04.399Z,6.44
2023-04-08T22:51:38.417Z,6.42
2023-04-08T22:54:11.878Z,6.41
2023-04-08T22:56:45.776Z,6.38
2023-04-08T22:59:19.355Z,6.35
2023-04-08T23:01:53.364Z,6.33
2023-04-08T23:04:26.604Z,6.31
2023-04-08T23:07:00.696Z,6.31
2023-04-08T23:09:34.158Z,6.33
2023-04-08T23:12:08.167Z,6.33
2023-04-08T23:14:41.729Z,6.34
2023-04-08T23:17:14.870Z,6.34
2023-04-08T23:19:48.484Z,6.36
2023-04-08T23:22:22.204Z,6.36
2023-04-08T23:24:55.780Z,6.35
2023-04-08T23:27:29.283Z,6.37
2023-04-08T23:30:06.175Z,6.36
2023-04-08T23:32:40.071Z,6.38
2023-04-08T23:35:14.077Z,6.37
2023-04-08T23:37:47.798Z,6.37
2023-04-08T23:40:21.793Z,6.38
2023-04-08T23:42:55.087Z,6.39
2023-04-08T23:45:28.580Z,6.38
2023-04-08T23:48:02.254Z,6.36
2023-04-08T23:50:35.985Z,6.35
2023-04-08T23:53:09.192Z,6.31
2023-04-08T23:55:42.565Z,6.29
2023-04-08T23:58:16.164Z,6.26
